createdAt,value
2022-08-01T00:00:13.913Z,25.94
2022-08-01T00:05:13.851Z,25.86
2022-08-01T00:10:14.307Z,25.89
2022-08-01T00:15:15.850Z,25.74
2022-08-01T00:20:15.431Z,25.67
2022-08-01T00:25:13.107Z,25.57
2022-08-01T00:30:14.574Z,25.56
2022-08-01T00:35:15.396Z,25.63
2022-08-01T00:40:13.412Z,25.58
2022-08-01T00:45:11.902Z,25.39
2022-08-01T00:50:10.810Z,25.46
2022-08-01T00:55:13.117Z,24.92
2022-08-01T01:00:33.741Z,25.03
2022-08-01T01:05:41.837Z,24.94
2022-08-01T01:11:13.816Z,25.17
2022-08-01T01:16:47.735Z,24.60
2022-08-01T01:22:20.654Z,25.19
2022-08-01T01:27:33.730Z,24.98
2022-08-01T01:32:54.307Z,25.07
2022-08-01T01:37:58.640Z,24.97
2022-08-01T01:42:57.713Z,24.58
2022-08-01T01:47:57.846Z,25.07
2022-08-01T01:52:59.210Z,24.76
2022-08-01T01:57:58.365Z,24.93
2022-08-01T02:02:58.011Z,24.88
2022-08-01T02:07:59.705Z,24.72
2022-08-01T02:13:00.124Z,24.75
2022-08-01T02:18:02.908Z,24.63
2022-08-01T02:23:07.147Z,24.71
2022-08-01T02:28:08.661Z,24.80
2022-08-01T02:33:15.808Z,24.20
2022-08-01T02:38:15.742Z,24.74
2022-08-01T02:43:25.165Z,24.44
2022-08-01T02:48:26.677Z,24.69
2022-08-01T02:53:43.775Z,24.38
2022-08-01T02:58:44.794Z,24.30
2022-08-01T03:03:44.895Z,24.59
2022-08-01T03:08:44.785Z,24.18
2022-08-01T03:13:46.023Z,24.29
2022-08-01T03:18:46.497Z,24.14
2022-08-01T03:23:46.402Z,24.00
2022-08-01T03:28:47.422Z,24.60
2022-08-01T03:33:47.931Z,24.21
2022-08-01T03:38:48.149Z,24.69
2022-08-01T03:43:49.994Z,24.11
2022-08-01T03:48:51.796Z,24.22
2022-08-01T03:53:52.565Z,24.27
2022-08-01T03:58:51.600Z,24.85
2022-08-01T04:04:13.160Z,24.53
2022-08-01T04:09:13.737Z,24.91
2022-08-01T04:14:11.742Z,25.00
2022-08-01T04:19:09.573Z,25.16
2022-08-01T04:24:14.004Z,25.94
2022-08-01T04:29:18.612Z,27.22
2022-08-01T04:34:22.024Z,28.30
2022-08-01T04:44:34.511Z,28.31
2022-08-01T04:49:49.252Z,27.86
2022-08-01T04:54:47.380Z,27.11
2022-08-01T04:59:45.057Z,27.42
2022-08-01T05:04:46.392Z,27.20
2022-08-01T05:10:09.632Z,27.04
2022-08-01T05:15:15.260Z,26.65
2022-08-01T05:20:16.008Z,26.76
2022-08-01T05:25:20.380Z,26.71
2022-08-01T05:30:29.971Z,26.60
2022-08-01T05:35:47.653Z,27.31
2022-08-01T05:40:46.364Z,29.77
2022-08-01T05:45:44.951Z,32.47
2022-08-01T05:50:42.899Z,35.25
2022-08-01T05:55:40.561Z,37.89
2022-08-01T06:00:39.224Z,39.64
2022-08-01T06:05:41.564Z,41.56
2022-08-01T06:10:42.108Z,43.19
2022-08-01T06:15:39.995Z,44.25
2022-08-01T06:20:37.812Z,44.65
2022-08-01T06:25:35.832Z,45.43
2022-08-01T06:30:32.896Z,45.54
2022-08-01T06:35:39.830Z,46.10
2022-08-01T06:40:41.869Z,46.25
2022-08-01T06:45:40.301Z,46.63
2022-08-01T06:50:38.362Z,46.93
2022-08-01T06:55:43.958Z,47.25
2022-08-01T07:00:57.590Z,47.18
2022-08-01T07:05:55.781Z,47.57
2022-08-01T07:10:53.402Z,48.47
2022-08-01T07:15:53.641Z,48.55
2022-08-01T07:20:52.810Z,48.89
2022-08-01T07:25:59.353Z,48.64
2022-08-01T07:30:58.026Z,48.13
2022-08-01T07:35:55.866Z,48.31
2022-08-01T07:40:58.488Z,48.58
2022-08-01T07:45:56.065Z,48.74
2022-08-01T07:50:56.987Z,48.55
2022-08-01T07:55:55.423Z,48.48
2022-08-01T08:00:52.443Z,48.49
2022-08-01T08:05:58.123Z,47.98
2022-08-01T08:11:24.671Z,47.15
2022-08-01T08:16:30.042Z,47.06
2022-08-01T08:21:30.733Z,46.79
2022-08-01T08:26:28.320Z,46.60
2022-08-01T08:31:51.699Z,45.93
2022-08-01T08:36:48.224Z,44.20
2022-08-01T08:41:50.135Z,43.20
2022-08-01T08:47:09.929Z,43.36
2022-08-01T08:52:09.336Z,44.19
2022-08-01T08:57:11.056Z,45.20
2022-08-01T09:02:14.691Z,44.81
2022-08-01T09:07:14.915Z,45.29
2022-08-01T09:12:16.897Z,45.98
2022-08-01T09:17:17.090Z,45.78
2022-08-01T09:22:26.852Z,46.14
2022-08-01T09:27:25.892Z,45.76
2022-08-01T09:32:32.759Z,46.05
2022-08-01T09:37:37.253Z,44.35
2022-08-01T09:42:35.451Z,41.34
2022-08-01T09:47:39.620Z,39.49
2022-08-01T09:52:37.564Z,38.49
2022-08-01T09:57:41.241Z,38.93
2022-08-01T10:03:01.138Z,38.16
2022-08-01T10:08:08.695Z,37.49
2022-08-01T10:13:12.830Z,37.15
2022-08-01T10:18:25.263Z,37.16
2022-08-01T10:23:40.409Z,36.56
2022-08-01T10:28:49.052Z,35.83
2022-08-01T10:33:51.447Z,35.76
2022-08-01T10:38:52.185Z,35.61
2022-08-01T10:43:56.628Z,35.26
2022-08-01T10:49:02.956Z,35.20
2022-08-01T10:54:10.101Z,34.80
2022-08-01T10:59:11.723Z,35.25
2022-08-01T11:04:37.120Z,35.39
2022-08-01T11:09:51.206Z,36.04
2022-08-01T11:15:29.439Z,36.34
2022-08-01T11:20:44.931Z,36.30
2022-08-01T11:26:13.295Z,36.66
2022-08-01T11:31:36.977Z,36.56
2022-08-01T11:37:03.114Z,37.05
2022-08-01T11:42:19.845Z,36.87
2022-08-01T11:47:37.041Z,37.56
2022-08-01T11:52:36.662Z,37.82
2022-08-01T11:57:40.997Z,38.12
2022-08-01T12:02:39.675Z,38.11
2022-08-01T12:07:38.153Z,38.61
2022-08-01T12:12:37.004Z,38.16
2022-08-01T12:17:40.266Z,38.59
2022-08-01T12:22:43.849Z,37.82
2022-08-01T12:27:43.923Z,37.70
2022-08-01T12:32:43.390Z,36.79
2022-08-01T12:37:44.183Z,35.92
2022-08-01T12:42:43.075Z,35.65
2022-08-01T12:47:44.254Z,34.99
2022-08-01T12:52:54.371Z,35.53
2022-08-01T12:58:07.155Z,35.53
2022-08-01T13:03:10.947Z,35.60
2022-08-01T13:08:13.540Z,35.37
2022-08-01T13:13:28.242Z,35.75
2022-08-01T13:18:28.859Z,36.09
2022-08-01T13:24:01.605Z,35.95
2022-08-01T13:28:44.797Z,35.74
2022-08-01T13:33:46.477Z,35.74
2022-08-01T13:39:24.901Z,35.78
2022-08-01T13:44:27.340Z,35.42
2022-08-01T13:49:26.505Z,35.32
2022-08-01T13:54:39.055Z,35.26
2022-08-01T13:59:39.022Z,34.74
2022-08-01T14:04:42.755Z,34.65
2022-08-01T14:09:45.077Z,34.33
2022-08-01T14:15:03.643Z,33.30
2022-08-01T14:20:13.581Z,32.30
2022-08-01T14:30:52.102Z,31.61
2022-08-01T14:36:05.853Z,30.98
2022-08-01T14:41:09.551Z,30.98
2022-08-01T14:46:13.415Z,30.90
2022-08-01T14:51:11.461Z,31.14
2022-08-01T14:56:16.714Z,30.65
2022-08-01T15:01:37.199Z,30.45
2022-08-01T15:06:35.564Z,30.26
2022-08-01T15:11:37.016Z,30.76
2022-08-01T15:16:34.270Z,31.11
2022-08-01T15:21:41.120Z,31.41
2022-08-01T15:26:43.029Z,31.54
2022-08-01T15:31:40.580Z,31.92
2022-08-01T15:36:43.464Z,32.17
2022-08-01T15:41:42.258Z,32.02
2022-08-01T15:46:46.965Z,31.18
2022-08-01T15:51:45.907Z,30.86
2022-08-01T15:57:10.791Z,30.87
2022-08-01T16:02:22.030Z,31.16
2022-08-01T16:07:21.023Z,30.58
2022-08-01T16:12:22.272Z,31.13
2022-08-01T16:17:25.502Z,30.85
2022-08-01T16:22:23.438Z,30.60
2022-08-01T16:27:25.546Z,30.30
2022-08-01T16:32:50.241Z,30.16
2022-08-01T16:37:54.372Z,29.93
2022-08-01T16:42:55.211Z,29.88
2022-08-01T16:47:56.893Z,29.79
2022-08-01T16:52:56.758Z,29.63
2022-08-01T17:04:12.964Z,29.58
2022-08-01T17:09:13.099Z,29.20
2022-08-01T17:14:16.060Z,28.80
2022-08-01T17:19:16.072Z,29.04
2022-08-01T17:24:15.797Z,28.70
2022-08-01T17:29:18.514Z,29.10
2022-08-01T17:34:16.318Z,29.05
2022-08-01T17:39:15.402Z,29.06
2022-08-01T17:44:13.589Z,29.54
2022-08-01T17:49:45.249Z,29.59
2022-08-01T18:00:50.097Z,29.25
2022-08-01T18:05:53.227Z,29.49
2022-08-01T18:11:01.901Z,29.47
2022-08-01T18:16:18.481Z,28.96
2022-08-01T18:21:26.017Z,29.02
2022-08-01T18:26:24.389Z,28.50
2022-08-01T18:31:24.333Z,28.54
2022-08-01T18:36:32.427Z,28.56
2022-08-01T18:41:33.179Z,28.39
2022-08-01T18:46:46.225Z,28.42
2022-08-01T18:51:46.441Z,27.80
2022-08-01T18:56:44.766Z,28.80
2022-08-01T19:01:45.510Z,29.06
2022-08-01T19:06:51.751Z,29.21
2022-08-01T19:11:49.629Z,29.05
2022-08-01T19:16:53.784Z,28.65
2022-08-01T19:21:53.470Z,28.99
2022-08-01T19:26:53.443Z,29.28
2022-08-01T19:32:00.099Z,29.54
2022-08-01T19:37:03.653Z,29.61
2022-08-01T19:42:05.024Z,29.22
2022-08-01T19:47:04.246Z,29.40
2022-08-01T19:52:04.443Z,28.72
2022-08-01T19:57:05.958Z,29.24
2022-08-01T20:02:04.725Z,29.02
2022-08-01T20:07:03.960Z,29.17
2022-08-01T20:12:03.096Z,28.68
2022-08-01T20:17:11.522Z,29.26
2022-08-01T20:22:09.993Z,29.16
2022-08-01T20:27:09.568Z,29.18
2022-08-01T20:32:08.888Z,29.22
2022-08-01T20:37:08.765Z,28.93
2022-08-01T20:42:13.155Z,29.11
2022-08-01T20:47:13.482Z,28.81
2022-08-01T20:52:12.784Z,28.58
2022-08-01T20:57:20.341Z,28.76
2022-08-01T21:02:37.265Z,28.82
2022-08-01T21:07:39.695Z,28.35
2022-08-01T21:12:48.956Z,28.65
2022-08-01T21:18:05.310Z,27.91
2022-08-01T21:23:13.231Z,28.32
2022-08-01T21:28:13.509Z,28.24
2022-08-01T21:33:13.122Z,28.00
2022-08-01T21:38:12.082Z,27.87
2022-08-01T21:43:11.193Z,27.30
2022-08-01T21:48:10.254Z,26.66
2022-08-01T21:53:16.027Z,26.05
2022-08-01T21:58:31.925Z,25.52
2022-08-01T22:03:35.740Z,25.62
2022-08-01T22:08:35.181Z,25.27
2022-08-01T22:13:34.553Z,25.50
2022-08-01T22:18:37.150Z,25.50
2022-08-01T22:23:36.658Z,25.36
2022-08-01T22:28:40.523Z,25.46
2022-08-01T22:33:48.669Z,25.55
2022-08-01T22:38:46.592Z,24.78
2022-08-01T22:44:03.021Z,25.22
2022-08-01T22:49:09.514Z,25.18
2022-08-01T22:54:11.204Z,24.76
2022-08-01T22:59:15.248Z,24.80
2022-08-01T23:04:20.176Z,24.12
2022-08-01T23:09:53.140Z,24.57
2022-08-01T23:14:53.540Z,24.89
2022-08-01T23:19:51.566Z,24.92
2022-08-01T23:25:04.600Z,24.77
2022-08-01T23:30:07.146Z,25.20
2022-08-01T23:35:05.604Z,25.50
2022-08-01T23:40:05.426Z,25.62
2022-08-01T23:45:04.904Z,25.34
2022-08-01T23:50:10.077Z,25.44
2022-08-01T23:55:15.105Z,24.97
